sensor_id;sensor_type;location;lat;lon;timestamp;pressure;altitude;pressure_sealevel;temperature;humidity
13058;BME280;6595;49.578;11.012;2022-09-20T00:00:23;987.433;;;18.16;88.4
13058;BME280;6595;49.578;11.012;2022-09-20T00:02:24;987.385;;;18.60;88.4
13058;BME280;6595;49.578;11.012;2022-09-20T00:04:24;987.389;;;18.65;88.4
13058;BME280;6595;49.578;11.012;2022-09-20T00:06:25;987.339;;;18.88;88.4
13058;BME280;6595;49.578;11.012;2022-09-20T00:08:24;987.391;;;18.54;88.4
13058;BME280;6595;49.578;11.012;2022-09-20T00:10:24;987.370;;;18.68;88.4
13058;BME280;6595;49.578;11.012;2022-09-20T00:12:24;987.425;;;17.95;88.3
13058;BME280;6595;49.578;11.012;2022-09-20T00:14:24;987.434;;;18.26;88.4
13058;BME280;6595;49.578;11.012;2022-09-20T00:16:25;987.385;;;18.30;88.4
13058;BME280;6595;49.578;11.012;2022-09-20T00:18:23;987.418;;;18.26;88.4
13058;BME280;6595;49.578;11.012;2022-09-20T00:20:24;987.383;;;17.92;88.3
13058;BME280;6595;49.578;11.012;2022-09-20T00:22:23;987.353;;;17.22;88.3
13058;BME280;6595;49.578;11.012;2022-09-20T00:24:24;987.356;;;17.93;88.3
13058;BME280;6595;49.578;11.012;2022-09-20T00:26:24;987.366;;;17.76;88.3
13058;BME280;6595;49.578;11.012;2022-09-20T00:28:24;987.359;;;17.75;88.3
13058;BME280;6595;49.578;11.012;2022-09-20T00:30:24;987.363;;;17.95;88.3
13058;BME280;6595;49.578;11.012;2022-09-20T00:32:23;987.383;;;17.57;88.3
13058;BME280;6595;49.578;11.012;2022-09-20T00:34:24;987.287;;;16.84;88.2
13058;BME280;6595;49.578;11.012;2022-09-20T00:36:25;987.347;;;17.36;88.3
13058;BME280;6595;49.578;11.012;2022-09-20T00:38:23;987.392;;;17.32;88.3
13058;BME280;6595;49.578;11.012;2022-09-20T00:40:24;987.375;;;17.53;88.3
13058;BME280;6595;49.578;11.012;2022-09-20T00:42:25;987.387;;;17.69;88.3
13058;BME280;6595;49.578;11.012;2022-09-20T00:44:43;987.351;;;17.23;88.3
13058;BME280;6595;49.578;11.012;2022-09-20T00:46:27;987.356;;;17.47;88.3
13058;BME280;6595;49.578;11.012;2022-09-20T00:48:26;987.301;;;17.41;88.3
13058;BME280;6595;49.578;11.012;2022-09-20T00:50:30;987.306;;;17.70;88.3
13058;BME280;6595;49.578;11.012;2022-09-20T00:52:24;987.242;;;17.47;88.3
13058;BME280;6595;49.578;11.012;2022-09-20T00:54:24;987.224;;;17.75;88.3
13058;BME280;6595;49.578;11.012;2022-09-20T00:56:26;987.257;;;17.68;88.3
13058;BME280;6595;49.578;11.012;2022-09-20T00:58:26;987.303;;;17.80;88.3
13058;BME280;6595;49.578;11.012;2022-09-20T01:00:24;987.309;;;18.10;88.4
13058;BME280;6595;49.578;11.012;2022-09-20T01:02:26;987.291;;;18.00;88.4
13058;BME280;6595;49.578;11.012;2022-09-20T01:04:25;987.305;;;18.13;88.4
13058;BME280;6595;49.578;11.012;2022-09-20T01:06:24;987.278;;;18.28;88.4
13058;BME280;6595;49.578;11.012;2022-09-20T01:08:24;987.307;;;18.09;88.4
13058;BME280;6595;49.578;11.012;2022-09-20T01:10:23;987.311;;;17.96;88.3
13058;BME280;6595;49.578;11.012;2022-09-20T01:12:26;987.339;;;17.49;88.3
13058;BME280;6595;49.578;11.012;2022-09-20T01:14:25;987.342;;;17.52;88.3
13058;BME280;6595;49.578;11.012;2022-09-20T01:16:24;987.342;;;17.52;88.3
13058;BME280;6595;49.578;11.012;2022-09-20T01:18:24;987.312;;;18.13;88.4
13058;BME280;6595;49.578;11.012;2022-09-20T01:20:25;987.349;;;18.02;88.3
13058;BME280;6595;49.578;11.012;2022-09-20T01:22:28;987.363;;;17.25;88.3
13058;BME280;6595;49.578;11.012;2022-09-20T01:24:26;987.373;;;17.45;88.3
13058;BME280;6595;49.578;11.012;2022-09-20T01:26:35;987.348;;;17.23;88.3
13058;BME280;6595;49.578;11.012;2022-09-20T01:28:24;987.388;;;17.86;88.3
13058;BME280;6595;49.578;11.012;2022-09-20T01:30:26;987.367;;;18.16;88.4
13058;BME280;6595;49.578;11.012;2022-09-20T01:32:32;987.346;;;18.40;88.4
13058;BME280;6595;49.578;11.012;2022-09-20T01:34:28;987.346;;;18.40;88.4
13058;BME280;6595;49.578;11.012;2022-09-20T01:36:31;987.346;;;18.40;88.4
13058;BME280;6595;49.578;11.012;2022-09-20T01:38:30;987.389;;;18.22;88.4
13058;BME280;6595;49.578;11.012;2022-09-20T01:40:30;987.347;;;18.60;88.4
13058;BME280;6595;49.578;11.012;2022-09-20T01:42:26;987.370;;;18.45;88.4
13058;BME280;6595;49.578;11.012;2022-09-20T01:44:30;987.391;;;17.96;88.3
13058;BME280;6595;49.578;11.012;2022-09-20T01:46:28;987.407;;;17.79;88.3
13058;BME280;6595;49.578;11.012;2022-09-20T01:48:27;987.421;;;17.69;88.3
13058;BME280;6595;49.578;11.012;2022-09-20T01:50:31;987.411;;;16.31;88.2
13058;BME280;6595;49.578;11.012;2022-09-20T01:52:41;987.446;;;17.42;88.3
13058;BME280;6595;49.578;11.012;2022-09-20T01:54:43;987.417;;;17.11;88.3
13058;BME280;6595;49.578;11.012;2022-09-20T01:56:42;987.431;;;17.21;88.3
13058;BME280;6595;49.578;11.012;2022-09-20T02:00:25;987.443;;;17.09;88.3
13058;BME280;6595;49.578;11.012;2022-09-20T02:02:36;987.490;;;17.43;88.3
13058;BME280;6595;49.578;11.012;2022-09-20T02:04:44;987.489;;;18.16;88.4
13058;BME280;6595;49.578;11.012;2022-09-20T02:06:36;987.453;;;17.13;88.2
13058;BME280;6595;49.578;11.012;2022-09-20T02:08:38;987.500;;;16.79;88.2
13058;BME280;6595;49.578;11.012;2022-09-20T02:10:46;987.531;;;17.47;88.3
13058;BME280;6595;49.578;11.012;2022-09-20T02:12:39;987.497;;;17.73;88.3
13058;BME280;6595;49.578;11.012;2022-09-20T02:14:31;987.450;;;17.99;88.4
13058;BME280;6595;49.578;11.012;2022-09-20T02:16:35;987.477;;;18.06;88.4
13058;BME280;6595;49.578;11.012;2022-09-20T02:18:38;987.454;;;17.82;88.3
13058;BME280;6595;49.578;11.012;2022-09-20T02:20:31;987.436;;;18.28;88.4
13058;BME280;6595;49.578;11.012;2022-09-20T02:22:38;987.475;;;18.25;88.4
13058;BME280;6595;49.578;11.012;2022-09-20T02:24:27;987.429;;;18.28;88.4
13058;BME280;6595;49.578;11.012;2022-09-20T02:26:32;987.443;;;17.97;88.3
13058;BME280;6595;49.578;11.012;2022-09-20T02:28:30;987.447;;;18.32;88.4
13058;BME280;6595;49.578;11.012;2022-09-20T02:30:35;987.468;;;17.88;88.3
13058;BME280;6595;49.578;11.012;2022-09-20T02:32:37;987.405;;;18.59;88.4
13058;BME280;6595;49.578;11.012;2022-09-20T02:34:36;987.445;;;18.68;88.4
13058;BME280;6595;49.578;11.012;2022-09-20T02:36:34;987.489;;;18.03;88.3
13058;BME280;6595;49.578;11.012;2022-09-20T02:38:35;987.453;;;18.37;88.4
13058;BME280;6595;49.578;11.012;2022-09-20T02:40:37;987.495;;;18.28;88.4
13058;BME280;6595;49.578;11.012;2022-09-20T02:42:26;987.501;;;17.95;88.3
13058;BME280;6595;49.578;11.012;2022-09-20T02:44:35;987.460;;;17.72;88.3
13058;BME280;6595;49.578;11.012;2022-09-20T02:46:27;987.477;;;17.29;88.3
13058;BME280;6595;49.578;11.012;2022-09-20T02:48:28;987.470;;;17.36;88.3
13058;BME280;6595;49.578;11.012;2022-09-20T02:50:30;987.462;;;16.37;88.2
13058;BME280;6595;49.578;11.012;2022-09-20T02:52:28;987.473;;;16.19;88.2
13058;BME280;6595;49.578;11.012;2022-09-20T02:54:31;987.401;;;16.53;88.2
13058;BME280;6595;49.578;11.012;2022-09-20T02:56:29;987.356;;;17.01;88.2
13058;BME280;6595;49.578;11.012;2022-09-20T02:58:32;987.386;;;16.80;88.2
13058;BME280;6595;49.578;11.012;2022-09-20T03:00:26;987.367;;;17.18;88.3
13058;BME280;6595;49.578;11.012;2022-09-20T03:02:26;987.420;;;17.75;88.3
13058;BME280;6595;49.578;11.012;2022-09-20T03:04:34;987.391;;;16.89;88.2
13058;BME280;6595;49.578;11.012;2022-09-20T03:06:29;987.459;;;17.38;88.3
13058;BME280;6595;49.578;11.012;2022-09-20T03:08:32;987.476;;;16.50;88.2
13058;BME280;6595;49.578;11.012;2022-09-20T03:10:28;987.446;;;16.64;88.2
13058;BME280;6595;49.578;11.012;2022-09-20T03:12:32;987.493;;;16.42;88.2
13058;BME280;6595;49.578;11.012;2022-09-20T03:14:27;987.478;;;16.36;88.2
13058;BME280;6595;49.578;11.012;2022-09-20T03:16:32;987.504;;;16.71;88.2
13058;BME280;6595;49.578;11.012;2022-09-20T03:18:33;987.509;;;16.89;88.2
13058;BME280;6595;49.578;11.012;2022-09-20T03:20:29;987.512;;;16.48;88.2
13058;BME280;6595;49.578;11.012;2022-09-20T03:22:30;987.468;;;17.18;88.3
13058;BME280;6595;49.578;11.012;2022-09-20T03:24:32;987.532;;;17.63;88.3
13058;BME280;6595;49.578;11.012;2022-09-20T03:26:33;987.506;;;17.26;88.3
13058;BME280;6595;49.578;11.012;2022-09-20T03:28:35;987.508;;;17.11;88.2
13058;BME280;6595;49.578;11.012;2022-09-20T03:30:34;987.532;;;16.68;88.2
13058;BME280;6595;49.578;11.012;2022-09-20T03:32:38;987.559;;;17.45;88.3
13058;BME280;6595;49.578;11.012;2022-09-20T03:34:37;987.557;;;17.34;88.3
13058;BME280;6595;49.578;11.012;2022-09-20T03:36:44;987.522;;;17.11;88.3
13058;BME280;6595;49.578;11.012;2022-09-20T03:38:38;987.522;;;17.11;88.3
13058;BME280;6595;49.578;11.012;2022-09-20T03:42:25;987.500;;;17.09;88.3
13058;BME280;6595;49.578;11.012;2022-09-20T03:44:34;987.580;;;16.16;88.1
13058;BME280;6595;49.578;11.012;2022-09-20T03:46:25;987.571;;;16.22;88.2
13058;BME280;6595;49.578;11.012;2022-09-20T03:48:35;987.577;;;16.43;88.2
13058;BME280;6595;49.578;11.012;2022-09-20T03:50:38;987.599;;;17.54;88.3
13058;BME280;6595;49.578;11.012;2022-09-20T03:52:36;987.599;;;17.81;88.3
13058;BME280;6595;49.578;11.012;2022-09-20T03:56:38;987.626;;;17.69;88.3
13058;BME280;6595;49.578;11.012;2022-09-20T03:58:37;987.664;;;17.85;88.3
13058;BME280;6595;49.578;11.012;2022-09-20T04:00:32;987.631;;;17.14;88.2
13058;BME280;6595;49.578;11.012;2022-09-20T04:02:35;987.649;;;17.70;88.3
13058;BME280;6595;49.578;11.012;2022-09-20T04:04:29;987.641;;;17.43;88.3
13058;BME280;6595;49.578;11.012;2022-09-20T04:06:39;987.666;;;17.43;88.3
13058;BME280;6595;49.578;11.012;2022-09-20T04:08:39;987.716;;;17.71;88.3
13058;BME280;6595;49.578;11.012;2022-09-20T04:10:32;987.736;;;17.72;88.3
13058;BME280;6595;49.578;11.012;2022-09-20T04:12:29;987.779;;;17.52;88.3
13058;BME280;6595;49.578;11.012;2022-09-20T04:14:31;987.800;;;17.65;88.3
13058;BME280;6595;49.578;11.012;2022-09-20T04:16:33;987.771;;;17.53;88.3
13058;BME280;6595;49.578;11.012;2022-09-20T04:18:32;987.800;;;17.62;88.3
13058;BME280;6595;49.578;11.012;2022-09-20T04:20:30;987.825;;;17.56;88.3
13058;BME280;6595;49.578;11.012;2022-09-20T04:22:26;987.817;;;17.66;88.3
13058;BME280;6595;49.578;11.012;2022-09-20T04:24:31;987.785;;;17.60;88.3
13058;BME280;6595;49.578;11.012;2022-09-20T04:26:25;987.759;;;17.32;88.3
13058;BME280;6595;49.578;11.012;2022-09-20T04:28:27;987.759;;;17.32;88.3
13058;BME280;6595;49.578;11.012;2022-09-20T04:30:25;987.827;;;17.02;88.2
13058;BME280;6595;49.578;11.012;2022-09-20T04:32:29;987.802;;;16.96;88.2
13058;BME280;6595;49.578;11.012;2022-09-20T04:34:29;987.810;;;16.76;88.2
13058;BME280;6595;49.578;11.012;2022-09-20T04:36:36;987.820;;;17.07;88.2
13058;BME280;6595;49.578;11.012;2022-09-20T04:38:25;987.789;;;17.29;88.3
13058;BME280;6595;49.578;11.012;2022-09-20T04:40:32;987.860;;;16.73;88.2
13058;BME280;6595;49.578;11.012;2022-09-20T04:44:37;987.834;;;17.37;88.3
13058;BME280;6595;49.578;11.012;2022-09-20T04:46:48;987.854;;;17.30;88.3
13058;BME280;6595;49.578;11.012;2022-09-20T04:48:40;987.827;;;17.32;88.3
13058;BME280;6595;49.578;11.012;2022-09-20T04:50:43;987.879;;;17.37;88.3
13058;BME280;6595;49.578;11.012;2022-09-20T04:52:46;987.891;;;17.21;88.3
13058;BME280;6595;49.578;11.012;2022-09-20T04:56:40;987.968;;;16.35;88.2
13058;BME280;6595;49.578;11.012;2022-09-20T04:58:34;987.968;;;16.35;88.2
13058;BME280;6595;49.578;11.012;2022-09-20T05:00:27;987.976;;;17.42;88.3
13058;BME280;6595;49.578;11.012;2022-09-20T05:02:48;987.979;;;17.11;88.3
13058;BME280;6595;49.578;11.012;2022-09-20T05:04:49;988.021;;;16.57;88.2
13058;BME280;6595;49.578;11.012;2022-09-20T05:08:38;988.065;;;17.67;88.3
13058;BME280;6595;49.578;11.012;2022-09-20T05:10:37;988.075;;;17.51;88.3
13058;BME280;6595;49.578;11.012;2022-09-20T05:12:33;988.090;;;17.06;88.2
13058;BME280;6595;49.578;11.012;2022-09-20T05:14:38;988.101;;;17.37;88.3
13058;BME280;6595;49.578;11.012;2022-09-20T05:16:30;988.062;;;17.47;88.3
13058;BME280;6595;49.578;11.012;2022-09-20T05:18:43;988.110;;;17.18;88.3
13058;BME280;6595;49.578;11.012;2022-09-20T05:20:45;988.118;;;17.17;88.3
13058;BME280;6595;49.578;11.012;2022-09-20T05:22:46;988.099;;;17.13;88.2
13058;BME280;6595;49.578;11.012;2022-09-20T05:24:36;988.056;;;17.48;88.3
13058;BME280;6595;49.578;11.012;2022-09-20T05:26:31;988.102;;;17.12;88.2
13058;BME280;6595;49.578;11.012;2022-09-20T05:28:29;988.095;;;17.44;88.3
13058;BME280;6595;49.578;11.012;2022-09-20T05:30:30;988.095;;;17.44;88.3
13058;BME280;6595;49.578;11.012;2022-09-20T05:32:29;988.078;;;16.77;88.2
13058;BME280;6595;49.578;11.012;2022-09-20T05:34:30;988.078;;;16.77;88.2
13058;BME280;6595;49.578;11.012;2022-09-20T05:36:30;988.107;;;17.35;88.3
13058;BME280;6595;49.578;11.012;2022-09-20T05:38:29;988.107;;;17.35;88.3
13058;BME280;6595;49.578;11.012;2022-09-20T05:40:29;988.154;;;17.27;88.3
13058;BME280;6595;49.578;11.012;2022-09-20T05:42:32;988.154;;;17.27;88.3
13058;BME280;6595;49.578;11.012;2022-09-20T05:44:30;988.222;;;16.86;88.2
13058;BME280;6595;49.578;11.012;2022-09-20T05:46:33;988.253;;;17.25;88.3
13058;BME280;6595;49.578;11.012;2022-09-20T05:48:30;988.228;;;17.26;88.3
13058;BME280;6595;49.578;11.012;2022-09-20T05:50:35;988.332;;;16.82;88.2
13058;BME280;6595;49.578;11.012;2022-09-20T05:52:35;988.373;;;16.45;88.2
13058;BME280;6595;49.578;11.012;2022-09-20T05:54:35;988.415;;;16.35;88.2
13058;BME280;6595;49.578;11.012;2022-09-20T05:56:34;988.451;;;16.79;88.2
13058;BME280;6595;49.578;11.012;2022-09-20T06:00:29;988.396;;;16.98;88.2
13058;BME280;6595;49.578;11.012;2022-09-20T06:02:32;988.417;;;16.74;88.2
13058;BME280;6595;49.578;11.012;2022-09-20T06:04:27;988.391;;;16.92;88.2
13058;BME280;6595;49.578;11.012;2022-09-20T06:06:28;988.386;;;17.29;88.3
13058;BME280;6595;49.578;11.012;2022-09-20T06:08:35;988.357;;;17.38;88.3
13058;BME280;6595;49.578;11.012;2022-09-20T06:10:35;988.423;;;16.94;88.2
13058;BME280;6595;49.578;11.012;2022-09-20T06:12:32;988.489;;;16.71;88.2
13058;BME280;6595;49.578;11.012;2022-09-20T06:14:33;988.415;;;17.51;88.3
13058;BME280;6595;49.578;11.012;2022-09-20T06:16:31;988.511;;;17.22;88.3
13058;BME280;6595;49.578;11.012;2022-09-20T06:18:26;988.489;;;17.21;88.3
13058;BME280;6595;49.578;11.012;2022-09-20T06:20:27;988.486;;;17.16;88.3
13058;BME280;6595;49.578;11.012;2022-09-20T06:22:27;988.424;;;17.51;88.3
13058;BME280;6595;49.578;11.012;2022-09-20T06:24:31;988.444;;;17.64;88.3
13058;BME280;6595;49.578;11.012;2022-09-20T06:26:26;988.482;;;18.01;88.3
13058;BME280;6595;49.578;11.012;2022-09-20T06:28:27;988.482;;;18.01;88.3
13058;BME280;6595;49.578;11.012;2022-09-20T06:30:27;988.452;;;17.84;88.3
13058;BME280;6595;49.578;11.012;2022-09-20T06:32:23;988.467;;;17.35;88.3
13058;BME280;6595;49.578;11.012;2022-09-20T06:34:23;988.450;;;17.49;88.3
13058;BME280;6595;49.578;11.012;2022-09-20T06:36:26;988.450;;;16.78;88.2
13058;BME280;6595;49.578;11.012;2022-09-20T06:38:40;988.384;;;17.57;88.3
13058;BME280;6595;49.578;11.012;2022-09-20T06:40:31;988.384;;;17.57;88.3
13058;BME280;6595;49.578;11.012;2022-09-20T06:42:23;988.437;;;16.72;88.2
13058;BME280;6595;49.578;11.012;2022-09-20T06:44:23;988.430;;;17.38;88.3
13058;BME280;6595;49.578;11.012;2022-09-20T06:46:25;988.483;;;17.76;88.3
13058;BME280;6595;49.578;11.012;2022-09-20T06:48:23;988.485;;;17.20;88.3
13058;BME280;6595;49.578;11.012;2022-09-20T06:50:23;988.510;;;17.24;88.3
13058;BME280;6595;49.578;11.012;2022-09-20T06:52:23;988.489;;;17.13;88.2
13058;BME280;6595;49.578;11.012;2022-09-20T06:54:23;988.491;;;17.50;88.3
13058;BME280;6595;49.578;11.012;2022-09-20T06:56:26;988.487;;;17.60;88.3
13058;BME280;6595;49.578;11.012;2022-09-20T06:58:24;988.519;;;17.20;88.3
13058;BME280;6595;49.578;11.012;2022-09-20T07:00:23;988.535;;;17.01;88.2
13058;BME280;6595;49.578;11.012;2022-09-20T07:02:24;988.620;;;16.75;88.2
13058;BME280;6595;49.578;11.012;2022-09-20T07:04:24;988.593;;;17.01;88.2
13058;BME280;6595;49.578;11.012;2022-09-20T07:06:24;988.562;;;17.97;88.3
13058;BME280;6595;49.578;11.012;2022-09-20T07:08:23;988.586;;;18.23;88.4
13058;BME280;6595;49.578;11.012;2022-09-20T07:10:24;988.556;;;17.71;88.3
13058;BME280;6595;49.578;11.012;2022-09-20T07:12:24;988.588;;;17.92;88.3
13058;BME280;6595;49.578;11.012;2022-09-20T07:14:24;988.561;;;16.72;88.2
13058;BME280;6595;49.578;11.012;2022-09-20T07:16:24;988.589;;;15.70;88.1
13058;BME280;6595;49.578;11.012;2022-09-20T07:18:23;988.573;;;17.54;88.3
13058;BME280;6595;49.578;11.012;2022-09-20T07:20:23;988.658;;;16.89;88.2
13058;BME280;6595;49.578;11.012;2022-09-20T07:22:24;988.616;;;17.86;88.3
13058;BME280;6595;49.578;11.012;2022-09-20T07:24:23;988.652;;;17.18;88.3
13058;BME280;6595;49.578;11.012;2022-09-20T07:26:26;988.652;;;17.18;88.3
13058;BME280;6595;49.578;11.012;2022-09-20T07:28:23;988.717;;;18.00;88.4
13058;BME280;6595;49.578;11.012;2022-09-20T07:30:23;988.736;;;17.67;88.3
13058;BME280;6595;49.578;11.012;2022-09-20T07:32:23;988.747;;;17.64;88.3
13058;BME280;6595;49.578;11.012;2022-09-20T07:34:24;988.788;;;16.58;88.2
13058;BME280;6595;49.578;11.012;2022-09-20T07:36:24;988.773;;;17.54;88.3
13058;BME280;6595;49.578;11.012;2022-09-20T07:38:24;988.740;;;17.95;88.3
13058;BME280;6595;49.578;11.012;2022-09-20T07:40:24;988.776;;;17.33;88.3
13058;BME280;6595;49.578;11.012;2022-09-20T07:42:24;988.788;;;18.60;88.4
13058;BME280;6595;49.578;11.012;2022-09-20T07:44:24;988.800;;;18.36;88.4
13058;BME280;6595;49.578;11.012;2022-09-20T07:46:23;988.834;;;18.23;88.4
13058;BME280;6595;49.578;11.012;2022-09-20T07:48:25;988.832;;;18.08;88.4
13058;BME280;6595;49.578;11.012;2022-09-20T07:50:24;988.902;;;18.52;88.4
13058;BME280;6595;49.578;11.012;2022-09-20T07:52:24;988.867;;;17.60;88.3
13058;BME280;6595;49.578;11.012;2022-09-20T07:54:24;988.846;;;18.41;88.4
13058;BME280;6595;49.578;11.012;2022-09-20T07:56:23;988.854;;;18.66;88.4
13058;BME280;6595;49.578;11.012;2022-09-20T07:58:24;988.869;;;18.54;88.4
13058;BME280;6595;49.578;11.012;2022-09-20T08:00:23;988.951;;;18.83;88.4
13058;BME280;6595;49.578;11.012;2022-09-20T08:02:24;988.955;;;18.88;88.4
13058;BME280;6595;49.578;11.012;2022-09-20T08:04:24;988.972;;;18.49;88.4
13058;BME280;6595;49.578;11.012;2022-09-20T08:06:24;988.978;;;18.19;88.4
13058;BME280;6595;49.578;11.012;2022-09-20T08:08:24;988.992;;;18.43;88.4
13058;BME280;6595;49.578;11.012;2022-09-20T08:10:24;988.985;;;18.10;88.4
13058;BME280;6595;49.578;11.012;2022-09-20T08:12:24;989.016;;;19.08;88.5
13058;BME280;6595;49.578;11.012;2022-09-20T08:14:24;989.082;;;19.20;88.5
13058;BME280;6595;49.578;11.012;2022-09-20T08:16:24;989.046;;;18.48;88.4
13058;BME280;6595;49.578;11.012;2022-09-20T08:18:24;989.113;;;19.30;88.5
13058;BME280;6595;49.578;11.012;2022-09-20T08:20:24;989.028;;;17.99;88.4
13058;BME280;6595;49.578;11.012;2022-09-20T08:22:24;989.073;;;17.68;88.3
13058;BME280;6595;49.578;11.012;2022-09-20T08:24:23;989.079;;;17.11;88.3
13058;BME280;6595;49.578;11.012;2022-09-20T08:26:25;989.096;;;18.51;88.4
13058;BME280;6595;49.578;11.012;2022-09-20T08:28:24;989.074;;;18.11;88.4
13058;BME280;6595;49.578;11.012;2022-09-20T08:30:24;989.121;;;17.79;88.3
13058;BME280;6595;49.578;11.012;2022-09-20T08:32:24;989.138;;;17.83;88.3
13058;BME280;6595;49.578;11.012;2022-09-20T08:34:23;989.112;;;18.09;88.4
13058;BME280;6595;49.578;11.012;2022-09-20T08:36:24;989.190;;;18.65;88.4
13058;BME280;6595;49.578;11.012;2022-09-20T08:38:24;989.206;;;17.72;88.3
13058;BME280;6595;49.578;11.012;2022-09-20T08:40:24;989.171;;;18.05;88.3
13058;BME280;6595;49.578;11.012;2022-09-20T08:42:27;989.163;;;18.00;88.4
13058;BME280;6595;49.578;11.012;2022-09-20T08:44:27;989.236;;;17.80;88.3
13058;BME280;6595;49.578;11.012;2022-09-20T08:46:27;989.230;;;17.76;88.3
13058;BME280;6595;49.578;11.012;2022-09-20T08:48:27;989.210;;;17.40;88.3
13058;BME280;6595;49.578;11.012;2022-09-20T08:50:23;989.278;;;16.57;88.2
13058;BME280;6595;49.578;11.012;2022-09-20T08:52:27;989.234;;;17.58;88.3
13058;BME280;6595;49.578;11.012;2022-09-20T08:54:24;989.248;;;17.08;88.2
13058;BME280;6595;49.578;11.012;2022-09-20T08:56:26;989.224;;;16.92;88.2
13058;BME280;6595;49.578;11.012;2022-09-20T08:58:24;989.244;;;17.53;88.3
13058;BME280;6595;49.578;11.012;2022-09-20T09:00:25;989.244;;;17.53;88.3
13058;BME280;6595;49.578;11.012;2022-09-20T09:02:24;989.286;;;18.49;88.4
13058;BME280;6595;49.578;11.012;2022-09-20T09:04:33;989.265;;;18.03;88.3
13058;BME280;6595;49.578;11.012;2022-09-20T09:06:23;989.303;;;17.89;88.3
13058;BME280;6595;49.578;11.012;2022-09-20T09:08:26;989.344;;;17.38;88.3
13058;BME280;6595;49.578;11.012;2022-09-20T09:10:34;989.321;;;17.02;88.2
13058;BME280;6595;49.578;11.012;2022-09-20T09:12:26;989.272;;;18.18;88.4
13058;BME280;6595;49.578;11.012;2022-09-20T09:14:25;989.273;;;17.91;88.3
13058;BME280;6595;49.578;11.012;2022-09-20T09:16:26;989.311;;;18.41;88.4
13058;BME280;6595;49.578;11.012;2022-09-20T09:18:30;989.283;;;18.35;88.4
13058;BME280;6595;49.578;11.012;2022-09-20T09:20:24;989.332;;;18.73;88.4
13058;BME280;6595;49.578;11.012;2022-09-20T09:22:27;989.237;;;18.06;88.4
13058;BME280;6595;49.578;11.012;2022-09-20T09:24:24;989.203;;;18.31;88.4
13058;BME280;6595;49.578;11.012;2022-09-20T09:26:24;989.256;;;18.49;88.4
13058;BME280;6595;49.578;11.012;2022-09-20T09:28:25;989.261;;;19.16;88.5
13058;BME280;6595;49.578;11.012;2022-09-20T09:30:26;989.237;;;18.38;88.4
13058;BME280;6595;49.578;11.012;2022-09-20T09:32:26;989.196;;;18.12;88.4
13058;BME280;6595;49.578;11.012;2022-09-20T09:34:25;989.196;;;18.12;88.4
13058;BME280;6595;49.578;11.012;2022-09-20T09:36:24;989.154;;;18.43;88.4
13058;BME280;6595;49.578;11.012;2022-09-20T09:38:26;989.154;;;18.43;88.4
13058;BME280;6595;49.578;11.012;2022-09-20T09:40:25;989.122;;;18.66;88.4
13058;BME280;6595;49.578;11.012;2022-09-20T09:42:24;989.138;;;19.03;88.5
13058;BME280;6595;49.578;11.012;2022-09-20T09:44:25;989.134;;;19.04;88.5
13058;BME280;6595;49.578;11.012;2022-09-20T09:46:24;989.130;;;19.30;88.5
13058;BME280;6595;49.578;11.012;2022-09-20T09:48:26;989.200;;;18.79;88.4
13058;BME280;6595;49.578;11.012;2022-09-20T09:50:26;989.106;;;18.96;88.5
13058;BME280;6595;49.578;11.012;2022-09-20T09:52:24;989.081;;;19.37;88.5
13058;BME280;6595;49.578;11.012;2022-09-20T09:54:25;989.119;;;19.10;88.5
13058;BME280;6595;49.578;11.012;2022-09-20T09:56:33;989.112;;;19.65;88.5
13058;BME280;6595;49.578;11.012;2022-09-20T09:58:33;989.108;;;18.71;88.4
13058;BME280;6595;49.578;11.012;2022-09-20T10:00:24;989.148;;;19.03;88.5
13058;BME280;6595;49.578;11.012;2022-09-20T10:02:42;989.110;;;18.86;88.4
13058;BME280;6595;49.578;11.012;2022-09-20T10:04:27;989.036;;;18.83;88.4
13058;BME280;6595;49.578;11.012;2022-09-20T10:06:27;989.013;;;19.34;88.5
13058;BME280;6595;49.578;11.012;2022-09-20T10:08:29;989.048;;;19.83;88.5
13058;BME280;6595;49.578;11.012;2022-09-20T10:10:31;989.023;;;19.88;88.6
13058;BME280;6595;49.578;11.012;2022-09-20T10:12:35;989.032;;;20.37;88.6
13058;BME280;6595;49.578;11.012;2022-09-20T10:14:34;989.011;;;19.97;88.6
13058;BME280;6595;49.578;11.012;2022-09-20T10:16:31;989.056;;;19.66;88.5
13058;BME280;6595;49.578;11.012;2022-09-20T10:18:32;989.079;;;19.60;88.5
13058;BME280;6595;49.578;11.012;2022-09-20T10:20:32;989.026;;;19.79;88.5
13058;BME280;6595;49.578;11.012;2022-09-20T10:22:30;989.006;;;20.38;88.6
13058;BME280;6595;49.578;11.012;2022-09-20T10:24:31;989.014;;;20.19;88.6
13058;BME280;6595;49.578;11.012;2022-09-20T10:26:34;989.033;;;20.56;88.6
13058;BME280;6595;49.578;11.012;2022-09-20T10:28:33;988.998;;;20.37;88.6
13058;BME280;6595;49.578;11.012;2022-09-20T10:30:28;988.977;;;20.52;88.6
13058;BME280;6595;49.578;11.012;2022-09-20T10:32:34;989.084;;;18.62;88.4
13058;BME280;6595;49.578;11.012;2022-09-20T10:34:44;989.074;;;19.38;88.5
13058;BME280;6595;49.578;11.012;2022-09-20T10:36:28;989.006;;;20.12;88.6
13058;BME280;6595;49.578;11.012;2022-09-20T10:38:29;989.056;;;19.39;88.5
13058;BME280;6595;49.578;11.012;2022-09-20T10:40:27;989.163;;;18.63;88.4
13058;BME280;6595;49.578;11.012;2022-09-20T10:42:33;989.061;;;19.77;88.5
13058;BME280;6595;49.578;11.012;2022-09-20T10:44:35;989.034;;;19.92;88.6
13058;BME280;6595;49.578;11.012;2022-09-20T10:46:30;989.023;;;20.04;88.6
13058;BME280;6595;49.578;11.012;2022-09-20T10:48:30;989.014;;;19.88;88.6
13058;BME280;6595;49.578;11.012;2022-09-20T10:50:31;988.981;;;20.21;88.6
13058;BME280;6595;49.578;11.012;2022-09-20T10:52:33;988.981;;;20.21;88.6
13058;BME280;6595;49.578;11.012;2022-09-20T10:54:36;988.991;;;19.79;88.5
13058;BME280;6595;49.578;11.012;2022-09-20T10:56:26;989.027;;;21.03;88.7
13058;BME280;6595;49.578;11.012;2022-09-20T10:58:34;988.969;;;20.66;88.6
13058;BME280;6595;49.578;11.012;2022-09-20T11:00:24;989.062;;;19.14;88.5
13058;BME280;6595;49.578;11.012;2022-09-20T11:02:36;989.075;;;19.19;88.5
13058;BME280;6595;49.578;11.012;2022-09-20T11:04:35;989.131;;;19.02;88.5
13058;BME280;6595;49.578;11.012;2022-09-20T11:06:33;989.081;;;18.75;88.4